METAR Formatted Surface Weather Observation
Issued by NWS Pago Pago

Home | Current Version | Previous Version | Text Only | Print | Product List | Glossary On
Versions: 1 2 3 4 5 6 7 8 9 10 11 12 13 14 15 16 17 18 19 20 21 22 23 24 25 26 27 28 29 30 31 32 33 34 35 36 37 38 39 40 41 42 43 44 45 46 47 48 49 50
445
SAZS31 NSTU 241154
MTRPPG
METAR NSTU 241150Z 11012KT 10SM SCT018 BKN040 OVC100 26/26 A2987 RMK
SHRAB05E40 SLP117 60000 70006 8/87/ T02640264 10274 20264 57007=


USA.gov is the U.S. government's official web portal to all federal, state and local government web resources and services.